Decatur, Arkansas
Current Conditions -  °F | °C
As of 6:53 AM on Monday 22 Dec 2014 (Local Time) from KXNA Reporting Station
Light Rain Light Rain  
Wind Chill: 42°   Ceiling: 1800
Heat Index: 46°   Visibility: 8mi
Dew Point: 44°   Wind: 8mph
Humidity: 93%   Direction: 150°SSE
Pressure: 29.62"   Gusts: NA
Location:  36.34°N, 94.46°W
Report Text: KXNA 221253Z 15007KT 8SM -RA OVC018 08/07 A2962 RMK AO2 RAB19 SLP032 P0001 T00780067
Loading
Personal Weather Stations






























Interactive Weather Map New forecast layout! Learn more

10-Day Weather Forecast

Advertisements
Track Severe Weather on mobile